createdAt,value
2022-09-23T00:00:42.837Z,4.63
2022-09-23T00:03:10.298Z,4.63
2022-09-23T00:05:38.191Z,4.90
2022-09-23T00:08:06.451Z,5.25
2022-09-23T00:10:33.257Z,4.78
2022-09-23T00:12:59.940Z,5.20
2022-09-23T00:15:26.765Z,5.25
2022-09-23T00:17:53.401Z,5.38
2022-09-23T00:20:20.383Z,5.70
2022-09-23T00:22:47.188Z,5.95
2022-09-23T00:25:13.868Z,5.55
2022-09-23T00:27:42.085Z,5.70
2022-09-23T00:30:09.923Z,6.50
2022-09-23T00:32:37.979Z,6.50
2022-09-23T00:35:05.151Z,5.55
2022-09-23T00:37:32.127Z,6.15
2022-09-23T00:39:59.868Z,5.95
2022-09-23T00:42:26.820Z,6.10
2022-09-23T00:44:58.450Z,6.80
2022-09-23T00:47:32.841Z,6.55
2022-09-23T00:50:20.816Z,6.93
2022-09-23T00:52:49.239Z,6.15
2022-09-23T00:55:19.931Z,6.68
2022-09-23T00:57:47.763Z,7.55
2022-09-23T01:00:14.599Z,6.13
2022-09-23T01:02:41.417Z,7.03
2022-09-23T01:05:08.608Z,6.97
2022-09-23T01:07:35.434Z,6.75
2022-09-23T01:10:02.786Z,6.50
2022-09-23T01:12:48.180Z,6.93
2022-09-23T01:15:33.488Z,6.85
2022-09-23T01:18:12.708Z,6.53
2022-09-23T01:21:16.961Z,6.65
2022-09-23T01:23:58.841Z,7.18
2022-09-23T01:26:48.564Z,6.88
2022-09-23T01:29:58.921Z,7.35
2022-09-23T01:32:34.612Z,7.75
2022-09-23T01:35:19.681Z,7.50
2022-09-23T01:37:56.230Z,7.85
2022-09-23T01:40:34.076Z,6.82
2022-09-23T01:43:08.884Z,7.70
2022-09-23T01:45:47.436Z,8.45
2022-09-23T01:48:19.478Z,7.38
2022-09-23T01:50:57.815Z,7.18
2022-09-23T01:53:34.975Z,7.25
2022-09-23T01:56:29.256Z,7.82
2022-09-23T01:59:16.184Z,8.57
2022-09-23T02:01:47.718Z,7.15
2022-09-23T02:04:48.191Z,6.80
2022-09-23T02:07:21.013Z,7.00
2022-09-23T02:09:53.889Z,6.95
2022-09-23T02:12:21.493Z,6.57
2022-09-23T02:14:58.738Z,6.63
2022-09-23T02:17:32.127Z,6.78
2022-09-23T02:20:02.329Z,6.55
2022-09-23T02:22:46.715Z,6.85
2022-09-23T02:25:13.794Z,6.53
2022-09-23T02:27:57.807Z,6.68
2022-09-23T02:30:29.001Z,6.07
2022-09-23T02:33:08.666Z,6.45
2022-09-23T02:35:41.332Z,6.65
2022-09-23T02:38:45.292Z,6.30
2022-09-23T02:41:26.679Z,6.72
2022-09-23T02:44:00.070Z,6.88
2022-09-23T02:46:27.072Z,6.68
2022-09-23T02:48:56.972Z,6.57
2022-09-23T02:51:28.993Z,6.35
2022-09-23T02:53:57.481Z,6.70
2022-09-23T02:56:24.503Z,6.88
2022-09-23T02:58:52.973Z,6.38
2022-09-23T03:01:32.738Z,6.47
2022-09-23T03:04:22.684Z,6.20
2022-09-23T03:07:06.593Z,6.30
2022-09-23T03:09:56.118Z,6.95
2022-09-23T03:12:38.284Z,6.43
2022-09-23T03:15:14.408Z,6.57
2022-09-23T03:17:48.084Z,6.85
2022-09-23T03:20:21.738Z,6.85
2022-09-23T03:23:01.479Z,6.80
2022-09-23T03:25:31.747Z,7.10
2022-09-23T03:27:59.748Z,7.28
2022-09-23T03:30:27.216Z,6.00
2022-09-23T03:32:55.186Z,6.85
2022-09-23T03:35:24.374Z,6.50
2022-09-23T03:37:55.396Z,7.15
2022-09-23T03:40:30.646Z,6.43
2022-09-23T03:42:58.292Z,6.70
2022-09-23T03:45:28.370Z,6.07
2022-09-23T03:47:55.279Z,6.18
2022-09-23T03:50:22.425Z,6.68
2022-09-23T03:52:50.675Z,7.05
2022-09-23T03:55:18.720Z,6.82
2022-09-23T03:57:45.956Z,6.55
2022-09-23T04:00:13.955Z,6.93
2022-09-23T04:02:40.770Z,7.18
2022-09-23T04:05:11.491Z,6.85
2022-09-23T04:07:38.152Z,6.10
2022-09-23T04:10:06.046Z,6.18
2022-09-23T04:12:32.677Z,6.03
2022-09-23T04:14:59.330Z,5.40
2022-09-23T04:17:25.985Z,5.95
2022-09-23T04:19:52.605Z,6.43
2022-09-23T04:22:19.280Z,6.22
2022-09-23T04:24:45.909Z,5.78
2022-09-23T04:27:12.595Z,6.13
2022-09-23T04:29:39.238Z,5.78
2022-09-23T04:32:05.924Z,5.25
2022-09-23T04:34:32.627Z,5.93
2022-09-23T04:36:59.295Z,6.38
2022-09-23T04:39:25.949Z,6.30
2022-09-23T04:41:52.598Z,6.68
2022-09-23T04:44:20.533Z,5.65
2022-09-23T04:46:48.290Z,5.72
2022-09-23T04:49:15.857Z,6.03
2022-09-23T04:51:43.717Z,6.05
2022-09-23T04:54:11.890Z,6.05
2022-09-23T04:56:39.527Z,6.57
2022-09-23T04:59:07.269Z,5.78
2022-09-23T05:01:35.293Z,6.60
2022-09-23T05:04:08.042Z,6.38
2022-09-23T05:06:35.387Z,6.93
2022-09-23T05:09:04.066Z,6.25
2022-09-23T05:11:31.696Z,6.45
2022-09-23T05:13:58.779Z,6.53
2022-09-23T05:16:26.782Z,5.95
2022-09-23T05:18:54.076Z,6.80
2022-09-23T05:21:23.111Z,6.95
2022-09-23T05:23:55.510Z,5.97
2022-09-23T05:26:25.635Z,5.80
2022-09-23T05:28:53.271Z,6.13
2022-09-23T05:31:22.179Z,6.53
2022-09-23T05:33:54.165Z,6.22
2022-09-23T05:36:22.134Z,6.60
2022-09-23T05:38:50.138Z,6.88
2022-09-23T05:41:17.764Z,7.53
2022-09-23T05:43:44.646Z,8.80
2022-09-23T05:46:15.918Z,6.80
2022-09-23T05:48:43.085Z,7.70
2022-09-23T05:51:23.070Z,7.82
2022-09-23T05:53:55.223Z,8.18
2022-09-23T05:56:23.617Z,7.25
2022-09-23T05:58:51.765Z,8.43
2022-09-23T06:01:25.039Z,11.05
2022-09-23T06:03:53.434Z,13.77
2022-09-23T06:06:22.326Z,11.90
2022-09-23T06:08:49.002Z,11.73
2022-09-23T06:11:15.752Z,11.43
2022-09-23T06:13:42.544Z,10.77
2022-09-23T06:16:11.924Z,9.98
2022-09-23T06:18:40.390Z,10.27
2022-09-23T06:21:07.744Z,10.02
2022-09-23T06:23:37.417Z,9.13
2022-09-23T06:26:08.148Z,9.05
2022-09-23T06:28:36.506Z,9.77
2022-09-23T06:31:12.862Z,9.20
2022-09-23T06:33:40.484Z,9.25
2022-09-23T06:36:07.891Z,8.73
2022-09-23T06:38:34.926Z,8.77
2022-09-23T06:41:04.909Z,7.70
2022-09-23T06:43:31.836Z,8.07
2022-09-23T06:46:00.758Z,7.65
2022-09-23T06:48:28.403Z,7.35
2022-09-23T06:50:58.964Z,7.80
2022-09-23T06:53:25.647Z,6.93
2022-09-23T06:56:03.045Z,7.15
2022-09-23T06:58:30.631Z,6.93
2022-09-23T07:01:06.767Z,6.75
2022-09-23T07:03:34.120Z,7.00
2022-09-23T07:06:00.909Z,6.50
2022-09-23T07:08:28.887Z,6.18
2022-09-23T07:10:57.735Z,6.88
2022-09-23T07:13:25.071Z,6.20
2022-09-23T07:15:55.879Z,6.60
2022-09-23T07:18:25.754Z,5.97
2022-09-23T07:20:53.369Z,6.20
2022-09-23T07:23:20.808Z,5.80
2022-09-23T07:25:50.452Z,6.10
2022-09-23T07:28:17.811Z,5.75
2022-09-23T07:30:56.629Z,6.13
2022-09-23T07:33:32.119Z,6.10
2022-09-23T07:35:59.520Z,5.88
2022-09-23T07:38:30.493Z,5.38
2022-09-23T07:41:05.044Z,5.68
2022-09-23T07:43:34.651Z,5.18
2022-09-23T07:46:03.762Z,5.60
2022-09-23T07:48:34.310Z,5.40
2022-09-23T07:51:06.452Z,4.95
2022-09-23T07:53:33.528Z,5.10
2022-09-23T07:56:00.256Z,5.03
2022-09-23T07:58:26.935Z,4.70
2022-09-23T08:00:53.801Z,4.35
2022-09-23T08:03:20.825Z,4.53
2022-09-23T08:05:47.810Z,4.22
2022-09-23T08:08:14.548Z,3.85
2022-09-23T08:10:41.389Z,4.15
2022-09-23T08:13:08.125Z,3.78
2022-09-23T08:15:34.988Z,4.30
2022-09-23T08:18:01.974Z,3.60
2022-09-23T08:20:47.982Z,3.67
2022-09-23T08:23:16.858Z,3.50
2022-09-23T08:25:47.096Z,3.55
2022-09-23T08:28:18.833Z,3.65
2022-09-23T08:30:48.247Z,5.55
2022-09-23T08:33:19.598Z,3.63
2022-09-23T08:35:49.501Z,3.47
2022-09-23T08:38:16.163Z,3.25
2022-09-23T08:40:44.673Z,3.22
2022-09-23T08:43:24.342Z,3.00
2022-09-23T08:45:51.640Z,3.58
2022-09-23T08:48:29.346Z,2.95
2022-09-23T08:51:01.989Z,3.17
2022-09-23T08:53:36.601Z,3.05
2022-09-23T08:56:07.289Z,2.70
2022-09-23T08:58:42.922Z,2.63
2022-09-23T09:01:21.296Z,2.97
2022-09-23T09:03:52.120Z,3.13
2022-09-23T09:06:23.338Z,3.28
2022-09-23T09:08:57.117Z,3.28
2022-09-23T09:11:32.133Z,2.80
2022-09-23T09:14:20.062Z,2.70
2022-09-23T09:16:59.899Z,2.75
2022-09-23T09:19:53.530Z,2.90
2022-09-23T09:22:23.408Z,2.97
2022-09-23T09:24:50.647Z,2.47
2022-09-23T09:27:17.363Z,2.22
2022-09-23T09:29:49.870Z,2.50
2022-09-23T09:32:56.008Z,2.35
2022-09-23T09:35:36.903Z,2.10
2022-09-23T09:38:05.791Z,2.10
2022-09-23T09:40:34.735Z,1.90
2022-09-23T09:43:04.735Z,1.85
2022-09-23T09:45:57.947Z,1.73
2022-09-23T09:48:38.057Z,1.85
2022-09-23T09:51:22.443Z,1.77
2022-09-23T09:53:52.165Z,1.80
2022-09-23T09:56:23.140Z,2.40
2022-09-23T09:58:52.546Z,1.60
2022-09-23T10:01:23.496Z,1.85
2022-09-23T10:03:55.535Z,1.92
2022-09-23T10:06:32.624Z,1.92
2022-09-23T10:09:04.782Z,1.50
2022-09-23T10:11:32.450Z,2.08
2022-09-23T10:14:13.092Z,1.75
2022-09-23T10:16:42.188Z,1.52
2022-09-23T10:19:28.888Z,1.40
2022-09-23T10:22:14.771Z,1.30
2022-09-23T10:24:48.243Z,1.50
2022-09-23T10:27:14.932Z,1.10
2022-09-23T10:29:47.616Z,1.40
2022-09-23T10:32:27.549Z,1.30
2022-09-23T10:34:58.400Z,1.10
2022-09-23T10:37:32.756Z,1.50
2022-09-23T10:40:19.536Z,1.05
2022-09-23T10:43:33.855Z,1.20
2022-09-23T10:46:23.260Z,1.15
2022-09-23T10:49:13.141Z,1.10
2022-09-23T10:51:48.960Z,1.20
2022-09-23T10:54:36.452Z,0.85
2022-09-23T10:58:02.286Z,1.00
2022-09-23T11:00:42.901Z,1.42
2022-09-23T11:03:36.291Z,1.20
2022-09-23T11:06:13.328Z,1.00
2022-09-23T11:09:06.726Z,1.15
2022-09-23T11:12:24.284Z,1.00
2022-09-23T11:15:02.703Z,1.00
2022-09-23T11:18:04.209Z,1.10
2022-09-23T11:20:45.730Z,1.52
2022-09-23T11:23:20.261Z,1.30
2022-09-23T11:25:50.683Z,1.40
2022-09-23T11:28:36.607Z,1.27
2022-09-23T11:31:54.063Z,1.08
2022-09-23T11:34:34.247Z,1.15
2022-09-23T11:37:09.298Z,1.27
2022-09-23T11:39:42.767Z,1.20
2022-09-23T11:42:14.835Z,1.10
2022-09-23T11:44:48.578Z,0.90
2022-09-23T11:47:21.263Z,1.10
2022-09-23T11:50:02.653Z,0.95
2022-09-23T11:52:37.023Z,1.00
2022-09-23T11:55:27.726Z,1.00
2022-09-23T11:57:56.163Z,0.95
2022-09-23T12:00:29.818Z,0.98
2022-09-23T12:03:13.140Z,1.70
2022-09-23T12:05:48.851Z,1.08
2022-09-23T12:08:29.197Z,1.00
2022-09-23T12:11:06.159Z,1.15
2022-09-23T12:14:01.535Z,1.00
2022-09-23T12:16:44.935Z,1.13
2022-09-23T12:19:34.717Z,0.80
2022-09-23T12:22:16.883Z,0.60
2022-09-23T12:24:54.460Z,0.50
2022-09-23T12:27:43.930Z,0.70
2022-09-23T12:30:19.590Z,0.60
2022-09-23T12:32:46.507Z,0.60
2022-09-23T12:35:41.712Z,0.57
2022-09-23T12:38:30.570Z,0.77
2022-09-23T12:40:57.349Z,0.85
2022-09-23T12:43:34.968Z,0.68
2022-09-23T12:46:23.751Z,0.90
2022-09-23T12:49:00.664Z,0.80
2022-09-23T12:51:34.835Z,0.50
2022-09-23T12:54:04.564Z,0.60
2022-09-23T12:56:34.294Z,1.27
2022-09-23T12:59:55.948Z,0.75
2022-09-23T13:02:30.079Z,0.52
2022-09-23T13:05:17.837Z,0.57
2022-09-23T13:07:49.406Z,0.80
2022-09-23T13:10:24.610Z,0.68
2022-09-23T13:12:52.696Z,0.80
2022-09-23T13:15:29.144Z,0.80
2022-09-23T13:18:54.856Z,0.90
2022-09-23T13:21:44.994Z,0.90
2022-09-23T13:24:16.712Z,0.60
2022-09-23T13:27:01.770Z,0.80
2022-09-23T13:29:36.377Z,0.70
2022-09-23T13:32:03.586Z,0.60
2022-09-23T13:34:34.834Z,0.80
2022-09-23T13:37:22.418Z,0.63
2022-09-23T13:39:49.806Z,0.60
2022-09-23T13:42:35.941Z,0.60
2022-09-23T13:45:02.636Z,0.60
2022-09-23T13:47:30.818Z,0.60
2022-09-23T13:49:57.607Z,0.60
2022-09-23T13:52:25.468Z,0.80
2022-09-23T13:54:53.135Z,0.68
2022-09-23T13:57:29.304Z,1.13
2022-09-23T14:00:17.615Z,0.57
2022-09-23T14:02:44.601Z,0.80
2022-09-23T14:05:22.350Z,0.52
2022-09-23T14:07:50.405Z,0.80
2022-09-23T14:10:20.829Z,0.50
2022-09-23T14:12:49.562Z,0.70
2022-09-23T14:15:17.746Z,1.05
2022-09-23T14:18:17.831Z,0.70
2022-09-23T14:20:49.124Z,0.63
2022-09-23T14:23:16.641Z,0.70
2022-09-23T14:25:44.838Z,0.70
2022-09-23T14:28:16.909Z,0.60
2022-09-23T14:30:46.520Z,0.73
2022-09-23T14:33:16.547Z,0.80
2022-09-23T14:35:46.864Z,0.82
2022-09-23T14:38:39.889Z,0.75
2022-09-23T14:41:23.930Z,0.70
2022-09-23T14:43:58.999Z,0.70
2022-09-23T14:46:30.936Z,0.80
2022-09-23T14:49:06.150Z,0.70
2022-09-23T14:51:47.086Z,0.80
2022-09-23T14:54:25.309Z,0.80
2022-09-23T14:56:52.406Z,0.93
2022-09-23T15:00:02.651Z,0.75
2022-09-23T15:02:38.162Z,0.82
2022-09-23T15:05:22.621Z,0.82
2022-09-23T15:07:56.436Z,0.68
2022-09-23T15:10:27.791Z,0.80
2022-09-23T15:12:56.761Z,0.90
2022-09-23T15:15:28.140Z,0.70
2022-09-23T15:17:55.238Z,0.85
2022-09-23T15:20:24.984Z,1.05
2022-09-23T15:22:54.568Z,0.70
2022-09-23T15:25:23.278Z,1.02
2022-09-23T15:28:17.902Z,1.05
2022-09-23T15:30:45.586Z,1.30
2022-09-23T15:33:14.117Z,1.17
2022-09-23T15:35:47.592Z,1.40
2022-09-23T15:38:14.496Z,1.60
2022-09-23T15:40:41.592Z,1.05
2022-09-23T15:43:21.461Z,1.50
2022-09-23T15:45:52.896Z,1.38
2022-09-23T15:48:22.800Z,1.70
2022-09-23T15:50:50.788Z,1.30
2022-09-23T15:53:21.749Z,1.27
2022-09-23T15:55:51.561Z,1.40
2022-09-23T15:58:22.284Z,1.30
2022-09-23T16:00:55.977Z,1.42
2022-09-23T16:03:28.791Z,1.60
2022-09-23T16:06:00.744Z,1.35
2022-09-23T16:08:29.370Z,1.80
2022-09-23T16:10:59.176Z,1.50
2022-09-23T16:13:26.120Z,1.77
2022-09-23T16:15:52.825Z,2.00
2022-09-23T16:18:20.300Z,1.63
2022-09-23T16:20:47.823Z,1.80
2022-09-23T16:23:35.723Z,2.40
2022-09-23T16:26:05.760Z,3.00
2022-09-23T16:28:32.458Z,5.25
2022-09-23T16:30:59.347Z,5.85
2022-09-23T16:33:27.569Z,7.53
2022-09-23T16:35:54.876Z,7.15
2022-09-23T16:38:21.619Z,6.70
2022-09-23T16:40:48.494Z,6.13
2022-09-23T16:43:15.376Z,6.05
2022-09-23T16:45:42.295Z,4.90
2022-09-23T16:48:11.513Z,4.07
2022-09-23T16:50:38.237Z,3.60
2022-09-23T16:53:04.993Z,3.00
2022-09-23T16:55:31.967Z,2.70
2022-09-23T16:57:58.688Z,2.67
2022-09-23T17:00:44.386Z,2.47
2022-09-23T17:03:31.238Z,2.67
2022-09-23T17:05:58.179Z,2.60
2022-09-23T17:08:25.191Z,2.38
2022-09-23T17:10:58.663Z,2.38
2022-09-23T17:13:29.665Z,2.70
2022-09-23T17:15:56.869Z,2.70
2022-09-23T17:18:23.945Z,2.30
2022-09-23T17:21:01.751Z,2.80
2022-09-23T17:23:29.127Z,2.45
2022-09-23T17:25:55.868Z,2.58
2022-09-23T17:28:22.897Z,2.70
2022-09-23T17:31:00.505Z,2.92
2022-09-23T17:33:28.817Z,3.28
2022-09-23T17:35:57.287Z,3.95
2022-09-23T17:38:28.674Z,4.07
2022-09-23T17:40:57.639Z,4.03
2022-09-23T17:43:27.178Z,4.68
2022-09-23T17:45:56.326Z,5.07
2022-09-23T17:48:24.764Z,5.03
2022-09-23T17:50:59.113Z,5.57
2022-09-23T17:53:26.358Z,6.20
2022-09-23T17:56:01.217Z,6.13
2022-09-23T17:58:30.190Z,6.97
2022-09-23T18:00:57.476Z,7.32
2022-09-23T18:03:25.905Z,7.13
2022-09-23T18:05:52.810Z,6.32
2022-09-23T18:08:20.015Z,5.88
2022-09-23T18:10:46.755Z,5.32
2022-09-23T18:13:13.573Z,5.07
2022-09-23T18:15:40.770Z,5.43
2022-09-23T18:18:07.784Z,5.30
2022-09-23T18:20:34.553Z,5.25
2022-09-23T18:23:01.248Z,5.53
2022-09-23T18:25:39.259Z,5.07
2022-09-23T18:28:06.687Z,5.35
2022-09-23T18:30:36.553Z,4.85
2022-09-23T18:33:03.535Z,5.78
2022-09-23T18:35:30.782Z,5.43
2022-09-23T18:37:57.836Z,6.55
2022-09-23T18:40:24.689Z,8.43
2022-09-23T18:42:51.474Z,8.13
2022-09-23T18:45:18.235Z,7.88
2022-09-23T18:48:03.684Z,9.05
2022-09-23T18:50:39.629Z,8.43
2022-09-23T18:53:06.666Z,7.80
2022-09-23T18:55:35.190Z,8.15
2022-09-23T18:58:02.497Z,7.97
2022-09-23T19:00:29.287Z,7.72
2022-09-23T19:02:56.067Z,7.30
2022-09-23T19:05:22.725Z,6.90
2022-09-23T19:07:49.753Z,6.35
2022-09-23T19:10:16.614Z,6.75
2022-09-23T19:12:43.832Z,6.72
2022-09-23T19:15:10.845Z,7.18
2022-09-23T19:17:37.628Z,6.47
2022-09-23T19:20:04.814Z,7.03
2022-09-23T19:22:32.956Z,6.97
2022-09-23T19:24:59.915Z,6.60
2022-09-23T19:27:26.623Z,6.72
2022-09-23T19:29:53.472Z,7.00
2022-09-23T19:32:20.377Z,6.57
2022-09-23T19:34:47.059Z,6.38
2022-09-23T19:37:14.003Z,6.57
2022-09-23T19:39:41.001Z,5.97
2022-09-23T19:42:07.888Z,5.43
2022-09-23T19:44:39.301Z,5.18
2022-09-23T19:47:06.183Z,5.65
2022-09-23T19:49:36.323Z,4.97
2022-09-23T19:52:03.039Z,5.00
2022-09-23T19:54:29.763Z,5.07
2022-09-23T19:56:56.476Z,5.32
2022-09-23T19:59:23.418Z,5.32
2022-09-23T20:01:50.359Z,5.20
2022-09-23T20:04:17.340Z,5.85
2022-09-23T20:06:44.204Z,7.18
2022-09-23T20:09:10.849Z,8.10
2022-09-23T20:11:37.539Z,8.98
2022-09-23T20:14:06.279Z,8.75
2022-09-23T20:16:35.484Z,9.30
2022-09-23T20:19:04.276Z,8.77
2022-09-23T20:21:31.394Z,7.93
2022-09-23T20:23:58.293Z,8.15
2022-09-23T20:26:44.068Z,7.88
2022-09-23T20:29:11.412Z,7.30
2022-09-23T20:31:40.533Z,6.82
2022-09-23T20:34:08.373Z,6.53
2022-09-23T20:36:35.580Z,6.10
2022-09-23T20:39:06.140Z,6.05
2022-09-23T20:41:37.511Z,5.75
2022-09-23T20:44:07.131Z,6.15
2022-09-23T20:46:34.514Z,5.93
2022-09-23T20:49:02.125Z,6.05
2022-09-23T20:51:28.985Z,6.22
2022-09-23T20:53:55.719Z,6.22
2022-09-23T20:56:23.628Z,6.05
2022-09-23T20:58:52.618Z,6.47
2022-09-23T21:01:21.240Z,5.60
2022-09-23T21:03:50.151Z,6.35
2022-09-23T21:06:18.831Z,6.35
2022-09-23T21:08:45.970Z,6.35
2022-09-23T21:11:15.206Z,6.50
2022-09-23T21:13:47.205Z,6.25
2022-09-23T21:16:16.202Z,6.40
2022-09-23T21:18:43.795Z,6.53
2022-09-23T21:21:12.254Z,6.32
2022-09-23T21:23:39.748Z,6.25
2022-09-23T21:26:08.167Z,6.65
2022-09-23T21:28:37.640Z,5.63
2022-09-23T21:31:06.597Z,6.50
2022-09-23T21:33:33.855Z,6.28
2022-09-23T21:36:06.394Z,6.15
2022-09-23T21:38:37.389Z,7.32
2022-09-23T21:41:06.825Z,5.97
2022-09-23T21:43:35.418Z,6.80
2022-09-23T21:46:04.521Z,6.43
2022-09-23T21:48:36.343Z,7.05
2022-09-23T21:51:08.451Z,7.13
2022-09-23T21:53:38.615Z,7.82
2022-09-23T21:56:10.553Z,7.65
2022-09-23T21:58:38.541Z,7.07
2022-09-23T22:01:14.751Z,6.72
2022-09-23T22:03:43.641Z,6.68
2022-09-23T22:06:15.109Z,6.32
2022-09-23T22:08:43.157Z,6.30
2022-09-23T22:11:33.567Z,6.07
2022-09-23T22:14:02.615Z,6.28
2022-09-23T22:16:29.994Z,6.32
2022-09-23T22:18:58.713Z,6.78
2022-09-23T22:21:27.006Z,5.85
2022-09-23T22:23:55.223Z,6.50
2022-09-23T22:26:21.880Z,6.68
2022-09-23T22:29:07.252Z,5.93
2022-09-23T22:31:52.588Z,6.15
2022-09-23T22:34:48.432Z,6.57
2022-09-23T22:37:14.022Z,7.03
2022-09-23T22:39:40.800Z,6.80
2022-09-23T22:42:07.522Z,7.65
2022-09-23T22:44:34.199Z,7.88
2022-09-23T22:47:01.706Z,7.65
2022-09-23T22:49:30.032Z,8.32
2022-09-23T22:51:56.749Z,8.43
2022-09-23T22:54:23.419Z,8.20
2022-09-23T22:56:50.949Z,7.80
2022-09-23T22:59:17.616Z,7.35
2022-09-23T23:01:44.316Z,7.65
2022-09-23T23:04:12.549Z,7.85
2022-09-23T23:06:39.399Z,6.75
2022-09-23T23:09:11.384Z,7.20
2022-09-23T23:11:42.469Z,7.45
2022-09-23T23:14:14.218Z,7.30
2022-09-23T23:16:41.022Z,7.45
2022-09-23T23:19:10.106Z,7.32
2022-09-23T23:21:37.267Z,7.55
2022-09-23T23:24:05.003Z,7.55
2022-09-23T23:26:33.865Z,7.30
2022-09-23T23:29:01.554Z,7.18
2022-09-23T23:31:29.327Z,7.43
2022-09-23T23:33:56.027Z,7.00
2022-09-23T23:36:23.745Z,6.40
2022-09-23T23:38:51.845Z,7.05
2022-09-23T23:41:22.714Z,6.60
2022-09-23T23:43:58.398Z,6.80
2022-09-23T23:46:26.745Z,7.68
2022-09-23T23:48:54.680Z,6.22
2022-09-23T23:51:21.773Z,6.47
2022-09-23T23:53:49.034Z,6.63
2022-09-23T23:56:18.253Z,6.40
2022-09-23T23:58:45.715Z,6.25
